sensor_id;sensor_type;location;lat;lon;timestamp;temperature;humidity
41628;DHT22;27321;50.816;6.054;2023-04-23T00:01:17;13.00;73.90
41628;DHT22;27321;50.816;6.054;2023-04-23T00:04:20;13.00;74.00
41628;DHT22;27321;50.816;6.054;2023-04-23T00:07:21;13.10;74.10
41628;DHT22;27321;50.816;6.054;2023-04-23T00:10:23;13.00;74.00
41628;DHT22;27321;50.816;6.054;2023-04-23T00:13:24;13.10;74.00
41628;DHT22;27321;50.816;6.054;2023-04-23T00:16:26;13.00;74.20
41628;DHT22;27321;50.816;6.054;2023-04-23T00:19:27;13.00;74.30
41628;DHT22;27321;50.816;6.054;2023-04-23T00:22:28;12.90;74.10
41628;DHT22;27321;50.816;6.054;2023-04-23T00:25:29;13.00;73.90
41628;DHT22;27321;50.816;6.054;2023-04-23T00:28:30;12.90;74.00
41628;DHT22;27321;50.816;6.054;2023-04-23T00:31:30;12.80;73.90
41628;DHT22;27321;50.816;6.054;2023-04-23T00:34:31;12.80;74.10
41628;DHT22;27321;50.816;6.054;2023-04-23T00:37:32;12.70;74.30
41628;DHT22;27321;50.816;6.054;2023-04-23T00:40:33;12.70;74.10
41628;DHT22;27321;50.816;6.054;2023-04-23T00:43:34;12.70;73.90
41628;DHT22;27321;50.816;6.054;2023-04-23T00:46:36;12.60;74.00
41628;DHT22;27321;50.816;6.054;2023-04-23T00:49:37;12.60;73.70
41628;DHT22;27321;50.816;6.054;2023-04-23T00:52:38;12.60;73.90
41628;DHT22;27321;50.816;6.054;2023-04-23T00:55:40;12.60;73.60
41628;DHT22;27321;50.816;6.054;2023-04-23T00:58:42;12.60;73.60
41628;DHT22;27321;50.816;6.054;2023-04-23T01:01:43;12.60;73.80
41628;DHT22;27321;50.816;6.054;2023-04-23T01:04:45;12.50;73.50
41628;DHT22;27321;50.816;6.054;2023-04-23T01:07:51;12.50;73.60
41628;DHT22;27321;50.816;6.054;2023-04-23T01:10:52;12.50;73.50
41628;DHT22;27321;50.816;6.054;2023-04-23T01:13:54;12.50;73.20
41628;DHT22;27321;50.816;6.054;2023-04-23T01:16:56;12.50;73.30
41628;DHT22;27321;50.816;6.054;2023-04-23T01:19:57;12.40;73.00
41628;DHT22;27321;50.816;6.054;2023-04-23T01:22:58;12.40;72.90
41628;DHT22;27321;50.816;6.054;2023-04-23T01:25:59;12.40;72.70
41628;DHT22;27321;50.816;6.054;2023-04-23T01:29:01;12.40;72.80
41628;DHT22;27321;50.816;6.054;2023-04-23T01:32:03;12.40;72.80
41628;DHT22;27321;50.816;6.054;2023-04-23T01:35:05;12.30;72.70
41628;DHT22;27321;50.816;6.054;2023-04-23T01:38:09;12.30;72.80
41628;DHT22;27321;50.816;6.054;2023-04-23T01:41:11;12.30;72.50
41628;DHT22;27321;50.816;6.054;2023-04-23T01:44:12;12.20;72.40
41628;DHT22;27321;50.816;6.054;2023-04-23T01:47:13;12.20;72.30
41628;DHT22;27321;50.816;6.054;2023-04-23T01:50:14;12.20;72.20
41628;DHT22;27321;50.816;6.054;2023-04-23T01:53:15;12.20;72.10
41628;DHT22;27321;50.816;6.054;2023-04-23T01:56:19;12.20;72.30
41628;DHT22;27321;50.816;6.054;2023-04-23T01:59:23;12.20;72.40
41628;DHT22;27321;50.816;6.054;2023-04-23T02:02:24;12.30;72.40
41628;DHT22;27321;50.816;6.054;2023-04-23T02:05:28;12.30;72.80
41628;DHT22;27321;50.816;6.054;2023-04-23T02:08:29;12.30;72.60
41628;DHT22;27321;50.816;6.054;2023-04-23T02:11:31;12.40;72.70
41628;DHT22;27321;50.816;6.054;2023-04-23T02:14:32;12.50;72.80
41628;DHT22;27321;50.816;6.054;2023-04-23T02:17:33;12.50;72.60
41628;DHT22;27321;50.816;6.054;2023-04-23T02:20:35;12.50;73.00
41628;DHT22;27321;50.816;6.054;2023-04-23T02:23:40;12.50;72.90
41628;DHT22;27321;50.816;6.054;2023-04-23T02:26:41;12.50;72.90
41628;DHT22;27321;50.816;6.054;2023-04-23T02:29:42;12.50;72.80
41628;DHT22;27321;50.816;6.054;2023-04-23T02:32:43;12.50;73.20
41628;DHT22;27321;50.816;6.054;2023-04-23T02:35:44;12.60;73.40
41628;DHT22;27321;50.816;6.054;2023-04-23T02:38:46;12.50;73.30
41628;DHT22;27321;50.816;6.054;2023-04-23T02:41:48;12.50;73.60
41628;DHT22;27321;50.816;6.054;2023-04-23T02:44:49;12.60;73.70
41628;DHT22;27321;50.816;6.054;2023-04-23T02:47:50;12.50;73.70
41628;DHT22;27321;50.816;6.054;2023-04-23T02:50:53;12.60;73.60
41628;DHT22;27321;50.816;6.054;2023-04-23T02:53:54;12.60;73.80
41628;DHT22;27321;50.816;6.054;2023-04-23T02:56:55;12.60;73.60
41628;DHT22;27321;50.816;6.054;2023-04-23T02:59:57;12.60;73.70
41628;DHT22;27321;50.816;6.054;2023-04-23T03:03:05;12.60;73.80
41628;DHT22;27321;50.816;6.054;2023-04-23T03:06:06;12.60;73.90
41628;DHT22;27321;50.816;6.054;2023-04-23T03:09:08;12.60;73.90
41628;DHT22;27321;50.816;6.054;2023-04-23T03:12:09;12.70;73.70
41628;DHT22;27321;50.816;6.054;2023-04-23T03:15:10;12.70;73.80
41628;DHT22;27321;50.816;6.054;2023-04-23T03:18:11;12.80;73.60
41628;DHT22;27321;50.816;6.054;2023-04-23T03:21:12;12.80;73.50
41628;DHT22;27321;50.816;6.054;2023-04-23T03:24:15;12.80;73.60
41628;DHT22;27321;50.816;6.054;2023-04-23T03:27:16;12.90;73.60
41628;DHT22;27321;50.816;6.054;2023-04-23T03:30:17;12.80;73.50
41628;DHT22;27321;50.816;6.054;2023-04-23T03:33:19;12.90;73.60
41628;DHT22;27321;50.816;6.054;2023-04-23T03:36:20;12.90;73.60
41628;DHT22;27321;50.816;6.054;2023-04-23T03:39:21;12.90;73.50
41628;DHT22;27321;50.816;6.054;2023-04-23T03:42:28;12.80;73.60
41628;DHT22;27321;50.816;6.054;2023-04-23T03:45:29;12.90;73.50
41628;DHT22;27321;50.816;6.054;2023-04-23T03:48:31;12.80;73.60
41628;DHT22;27321;50.816;6.054;2023-04-23T03:51:34;12.90;73.50
41628;DHT22;27321;50.816;6.054;2023-04-23T03:54:35;12.90;73.50
41628;DHT22;27321;50.816;6.054;2023-04-23T03:57:49;12.90;73.60
41628;DHT22;27321;50.816;6.054;2023-04-23T04:00:55;12.90;73.60
41628;DHT22;27321;50.816;6.054;2023-04-23T04:03:57;12.90;73.60
41628;DHT22;27321;50.816;6.054;2023-04-23T04:06:58;12.90;73.70
41628;DHT22;27321;50.816;6.054;2023-04-23T04:10:04;12.90;73.70
41628;DHT22;27321;50.816;6.054;2023-04-23T04:13:06;13.00;73.50
41628;DHT22;27321;50.816;6.054;2023-04-23T04:16:07;12.90;73.50
41628;DHT22;27321;50.816;6.054;2023-04-23T04:19:08;12.90;73.80
41628;DHT22;27321;50.816;6.054;2023-04-23T04:22:09;12.90;73.70
41628;DHT22;27321;50.816;6.054;2023-04-23T04:25:10;12.90;73.80
41628;DHT22;27321;50.816;6.054;2023-04-23T04:28:11;12.90;73.90
41628;DHT22;27321;50.816;6.054;2023-04-23T04:31:13;13.00;73.90
41628;DHT22;27321;50.816;6.054;2023-04-23T04:34:15;13.00;73.90
41628;DHT22;27321;50.816;6.054;2023-04-23T04:37:17;13.00;74.00
41628;DHT22;27321;50.816;6.054;2023-04-23T04:40:20;13.00;73.90
41628;DHT22;27321;50.816;6.054;2023-04-23T04:43:21;13.10;73.80
41628;DHT22;27321;50.816;6.054;2023-04-23T04:46:22;13.10;73.80
41628;DHT22;27321;50.816;6.054;2023-04-23T04:49:23;13.10;73.90
41628;DHT22;27321;50.816;6.054;2023-04-23T04:52:23;13.10;73.80
41628;DHT22;27321;50.816;6.054;2023-04-23T04:55:25;13.10;74.00
41628;DHT22;27321;50.816;6.054;2023-04-23T04:58:26;13.10;74.10
41628;DHT22;27321;50.816;6.054;2023-04-23T05:01:27;13.10;74.00
41628;DHT22;27321;50.816;6.054;2023-04-23T05:04:29;13.10;74.20
41628;DHT22;27321;50.816;6.054;2023-04-23T05:07:30;13.10;74.10
41628;DHT22;27321;50.816;6.054;2023-04-23T05:10:31;13.10;74.10
41628;DHT22;27321;50.816;6.054;2023-04-23T05:13:31;13.10;74.20
41628;DHT22;27321;50.816;6.054;2023-04-23T05:16:33;13.10;74.40
41628;DHT22;27321;50.816;6.054;2023-04-23T05:19:34;13.20;74.20
41628;DHT22;27321;50.816;6.054;2023-04-23T05:22:38;13.30;74.10
41628;DHT22;27321;50.816;6.054;2023-04-23T05:25:40;13.30;74.10
41628;DHT22;27321;50.816;6.054;2023-04-23T05:28:41;13.30;74.00
41628;DHT22;27321;50.816;6.054;2023-04-23T05:31:42;13.30;74.20
41628;DHT22;27321;50.816;6.054;2023-04-23T05:34:43;13.40;74.20
41628;DHT22;27321;50.816;6.054;2023-04-23T05:37:44;13.40;74.20
41628;DHT22;27321;50.816;6.054;2023-04-23T05:40:45;13.40;74.20
41628;DHT22;27321;50.816;6.054;2023-04-23T05:43:46;13.50;74.00
41628;DHT22;27321;50.816;6.054;2023-04-23T05:46:47;13.50;74.10
41628;DHT22;27321;50.816;6.054;2023-04-23T05:49:48;13.50;74.20
41628;DHT22;27321;50.816;6.054;2023-04-23T05:52:49;13.50;74.20
41628;DHT22;27321;50.816;6.054;2023-04-23T05:55:50;13.50;74.20
41628;DHT22;27321;50.816;6.054;2023-04-23T05:58:51;13.50;74.10
41628;DHT22;27321;50.816;6.054;2023-04-23T06:01:52;13.50;74.30
41628;DHT22;27321;50.816;6.054;2023-04-23T06:04:54;13.50;74.40
41628;DHT22;27321;50.816;6.054;2023-04-23T06:07:55;13.60;74.20
41628;DHT22;27321;50.816;6.054;2023-04-23T06:10:56;13.60;74.50
41628;DHT22;27321;50.816;6.054;2023-04-23T06:13:57;13.60;74.30
41628;DHT22;27321;50.816;6.054;2023-04-23T06:16:58;13.60;74.20
41628;DHT22;27321;50.816;6.054;2023-04-23T06:19:59;13.60;74.30
41628;DHT22;27321;50.816;6.054;2023-04-23T06:23:00;13.60;74.40
41628;DHT22;27321;50.816;6.054;2023-04-23T06:26:02;13.60;74.20
41628;DHT22;27321;50.816;6.054;2023-04-23T06:29:03;13.60;74.30
41628;DHT22;27321;50.816;6.054;2023-04-23T06:32:10;13.70;74.40
41628;DHT22;27321;50.816;6.054;2023-04-23T06:35:11;13.70;74.00
41628;DHT22;27321;50.816;6.054;2023-04-23T06:38:12;13.70;74.30
41628;DHT22;27321;50.816;6.054;2023-04-23T06:41:13;13.70;73.90
41628;DHT22;27321;50.816;6.054;2023-04-23T06:44:15;13.70;73.70
41628;DHT22;27321;50.816;6.054;2023-04-23T06:47:25;13.70;74.00
41628;DHT22;27321;50.816;6.054;2023-04-23T06:50:26;13.70;74.00
41628;DHT22;27321;50.816;6.054;2023-04-23T06:53:27;13.80;74.40
41628;DHT22;27321;50.816;6.054;2023-04-23T06:56:28;13.90;74.10
41628;DHT22;27321;50.816;6.054;2023-04-23T06:59:29;13.90;73.90
41628;DHT22;27321;50.816;6.054;2023-04-23T07:02:32;14.00;73.40
41628;DHT22;27321;50.816;6.054;2023-04-23T07:05:33;14.00;73.60
41628;DHT22;27321;50.816;6.054;2023-04-23T07:08:34;14.00;73.50
41628;DHT22;27321;50.816;6.054;2023-04-23T07:11:35;14.00;73.30
41628;DHT22;27321;50.816;6.054;2023-04-23T07:14:36;14.10;73.20
41628;DHT22;27321;50.816;6.054;2023-04-23T07:17:37;14.10;73.00
41628;DHT22;27321;50.816;6.054;2023-04-23T07:20:38;14.10;72.80
41628;DHT22;27321;50.816;6.054;2023-04-23T07:23:39;14.10;72.70
41628;DHT22;27321;50.816;6.054;2023-04-23T07:26:40;14.10;72.40
41628;DHT22;27321;50.816;6.054;2023-04-23T07:29:41;14.10;72.50
41628;DHT22;27321;50.816;6.054;2023-04-23T07:32:42;14.20;72.40
41628;DHT22;27321;50.816;6.054;2023-04-23T07:35:43;14.20;71.70
41628;DHT22;27321;50.816;6.054;2023-04-23T07:38:45;14.30;72.30
41628;DHT22;27321;50.816;6.054;2023-04-23T07:41:46;14.30;71.90
41628;DHT22;27321;50.816;6.054;2023-04-23T07:44:47;14.40;72.10
41628;DHT22;27321;50.816;6.054;2023-04-23T07:47:49;14.50;71.30
41628;DHT22;27321;50.816;6.054;2023-04-23T07:50:50;14.50;71.10
41628;DHT22;27321;50.816;6.054;2023-04-23T07:53:52;14.60;70.90
41628;DHT22;27321;50.816;6.054;2023-04-23T07:56:53;14.60;69.90
41628;DHT22;27321;50.816;6.054;2023-04-23T07:59:54;14.70;70.20
41628;DHT22;27321;50.816;6.054;2023-04-23T08:02:55;14.80;70.60
41628;DHT22;27321;50.816;6.054;2023-04-23T08:05:56;14.80;69.90
41628;DHT22;27321;50.816;6.054;2023-04-23T08:08:57;14.90;70.10
41628;DHT22;27321;50.816;6.054;2023-04-23T08:11:58;15.00;68.90
41628;DHT22;27321;50.816;6.054;2023-04-23T08:14:59;15.00;69.10
41628;DHT22;27321;50.816;6.054;2023-04-23T08:18:08;15.10;69.00
41628;DHT22;27321;50.816;6.054;2023-04-23T08:21:09;15.20;69.20
41628;DHT22;27321;50.816;6.054;2023-04-23T08:24:12;15.30;68.70
41628;DHT22;27321;50.816;6.054;2023-04-23T08:27:13;15.30;67.00
41628;DHT22;27321;50.816;6.054;2023-04-23T08:30:14;15.30;66.70
41628;DHT22;27321;50.816;6.054;2023-04-23T08:33:15;15.40;66.10
41628;DHT22;27321;50.816;6.054;2023-04-23T08:36:16;15.40;66.00
41628;DHT22;27321;50.816;6.054;2023-04-23T08:39:17;15.50;65.20
41628;DHT22;27321;50.816;6.054;2023-04-23T08:42:26;15.40;65.40
41628;DHT22;27321;50.816;6.054;2023-04-23T08:45:32;15.40;65.60
41628;DHT22;27321;50.816;6.054;2023-04-23T08:48:34;15.50;65.90
41628;DHT22;27321;50.816;6.054;2023-04-23T08:51:37;15.60;66.30
41628;DHT22;27321;50.816;6.054;2023-04-23T08:54:43;15.70;65.30
41628;DHT22;27321;50.816;6.054;2023-04-23T08:57:46;15.70;63.10
41628;DHT22;27321;50.816;6.054;2023-04-23T09:00:48;15.80;63.90
41628;DHT22;27321;50.816;6.054;2023-04-23T09:03:50;15.80;63.50
41628;DHT22;27321;50.816;6.054;2023-04-23T09:06:52;15.90;63.60
41628;DHT22;27321;50.816;6.054;2023-04-23T09:09:53;15.90;63.30
41628;DHT22;27321;50.816;6.054;2023-04-23T09:12:54;16.00;62.70
41628;DHT22;27321;50.816;6.054;2023-04-23T09:15:55;16.10;63.00
41628;DHT22;27321;50.816;6.054;2023-04-23T09:18:56;16.10;62.60
41628;DHT22;27321;50.816;6.054;2023-04-23T09:21:58;16.20;63.80
41628;DHT22;27321;50.816;6.054;2023-04-23T09:25:01;16.30;62.70
41628;DHT22;27321;50.816;6.054;2023-04-23T09:28:06;16.40;61.40
41628;DHT22;27321;50.816;6.054;2023-04-23T09:31:10;16.40;61.40
41628;DHT22;27321;50.816;6.054;2023-04-23T09:34:11;16.40;61.60
41628;DHT22;27321;50.816;6.054;2023-04-23T09:37:17;16.50;61.90
41628;DHT22;27321;50.816;6.054;2023-04-23T09:40:21;16.60;61.50
41628;DHT22;27321;50.816;6.054;2023-04-23T09:43:23;16.80;61.90
41628;DHT22;27321;50.816;6.054;2023-04-23T09:46:38;17.00;61.30
41628;DHT22;27321;50.816;6.054;2023-04-23T09:49:48;17.10;59.80
41628;DHT22;27321;50.816;6.054;2023-04-23T09:52:55;17.10;59.90
41628;DHT22;27321;50.816;6.054;2023-04-23T09:55:56;17.10;59.40
41628;DHT22;27321;50.816;6.054;2023-04-23T09:58:57;17.10;59.30
41628;DHT22;27321;50.816;6.054;2023-04-23T10:02:01;17.20;59.00
41628;DHT22;27321;50.816;6.054;2023-04-23T10:05:14;17.30;61.00
41628;DHT22;27321;50.816;6.054;2023-04-23T10:08:16;17.50;60.10
41628;DHT22;27321;50.816;6.054;2023-04-23T10:11:17;17.60;60.00
41628;DHT22;27321;50.816;6.054;2023-04-23T10:14:19;17.60;58.80
41628;DHT22;27321;50.816;6.054;2023-04-23T10:17:21;17.60;58.70
41628;DHT22;27321;50.816;6.054;2023-04-23T10:20:22;17.60;57.70
41628;DHT22;27321;50.816;6.054;2023-04-23T10:23:24;17.60;58.00
41628;DHT22;27321;50.816;6.054;2023-04-23T10:26:25;17.60;56.60
41628;DHT22;27321;50.816;6.054;2023-04-23T10:29:28;17.60;56.20
41628;DHT22;27321;50.816;6.054;2023-04-23T10:32:32;17.60;56.50
41628;DHT22;27321;50.816;6.054;2023-04-23T10:35:34;17.50;56.00
41628;DHT22;27321;50.816;6.054;2023-04-23T10:38:35;17.60;56.20
41628;DHT22;27321;50.816;6.054;2023-04-23T10:41:39;17.50;55.60
41628;DHT22;27321;50.816;6.054;2023-04-23T10:44:42;17.40;55.40
41628;DHT22;27321;50.816;6.054;2023-04-23T10:47:44;17.30;54.40
41628;DHT22;27321;50.816;6.054;2023-04-23T10:50:45;17.40;55.50
41628;DHT22;27321;50.816;6.054;2023-04-23T10:53:47;17.50;56.00
41628;DHT22;27321;50.816;6.054;2023-04-23T10:57:00;17.60;55.90
41628;DHT22;27321;50.816;6.054;2023-04-23T11:00:03;17.60;54.70
41628;DHT22;27321;50.816;6.054;2023-04-23T11:03:25;17.60;54.50
41628;DHT22;27321;50.816;6.054;2023-04-23T11:09:49;17.80;54.50
41628;DHT22;27321;50.816;6.054;2023-04-23T11:12:55;17.80;54.70
41628;DHT22;27321;50.816;6.054;2023-04-23T11:16:29;18.00;54.00
41628;DHT22;27321;50.816;6.054;2023-04-23T11:19:30;18.10;54.50
41628;DHT22;27321;50.816;6.054;2023-04-23T11:25:41;18.20;53.10
41628;DHT22;27321;50.816;6.054;2023-04-23T11:28:44;18.30;53.10
41628;DHT22;27321;50.816;6.054;2023-04-23T11:31:47;18.50;54.40
41628;DHT22;27321;50.816;6.054;2023-04-23T11:34:48;18.60;52.60
41628;DHT22;27321;50.816;6.054;2023-04-23T11:37:50;18.70;52.30
41628;DHT22;27321;50.816;6.054;2023-04-23T11:40:51;18.70;50.60
41628;DHT22;27321;50.816;6.054;2023-04-23T11:43:55;18.70;50.80
41628;DHT22;27321;50.816;6.054;2023-04-23T11:46:59;18.80;51.90
41628;DHT22;27321;50.816;6.054;2023-04-23T11:50:02;18.90;51.10
41628;DHT22;27321;50.816;6.054;2023-04-23T11:53:04;18.80;48.30
41628;DHT22;27321;50.816;6.054;2023-04-23T11:56:10;18.90;48.00
41628;DHT22;27321;50.816;6.054;2023-04-23T11:59:11;18.90;48.80
41628;DHT22;27321;50.816;6.054;2023-04-23T12:02:12;18.90;48.40
41628;DHT22;27321;50.816;6.054;2023-04-23T12:05:12;19.00;49.20
41628;DHT22;27321;50.816;6.054;2023-04-23T12:08:15;19.20;49.30
41628;DHT22;27321;50.816;6.054;2023-04-23T12:11:17;19.30;48.00
41628;DHT22;27321;50.816;6.054;2023-04-23T12:14:24;19.30;48.90
41628;DHT22;27321;50.816;6.054;2023-04-23T12:17:28;19.30;48.60
41628;DHT22;27321;50.816;6.054;2023-04-23T12:20:29;19.30;48.20
41628;DHT22;27321;50.816;6.054;2023-04-23T12:23:30;19.40;47.80
41628;DHT22;27321;50.816;6.054;2023-04-23T12:26:36;19.30;47.50
41628;DHT22;27321;50.816;6.054;2023-04-23T12:29:37;19.50;47.60
41628;DHT22;27321;50.816;6.054;2023-04-23T12:32:38;19.50;47.30
41628;DHT22;27321;50.816;6.054;2023-04-23T12:35:44;19.60;48.00
41628;DHT22;27321;50.816;6.054;2023-04-23T12:38:50;19.60;46.80
41628;DHT22;27321;50.816;6.054;2023-04-23T12:42:01;19.60;45.70
41628;DHT22;27321;50.816;6.054;2023-04-23T12:45:08;19.60;45.50
41628;DHT22;27321;50.816;6.054;2023-04-23T12:48:09;19.50;45.80
41628;DHT22;27321;50.816;6.054;2023-04-23T12:51:10;19.50;46.00
41628;DHT22;27321;50.816;6.054;2023-04-23T12:54:11;19.60;46.90
41628;DHT22;27321;50.816;6.054;2023-04-23T12:57:13;19.50;45.50
41628;DHT22;27321;50.816;6.054;2023-04-23T13:00:14;19.50;45.50
41628;DHT22;27321;50.816;6.054;2023-04-23T13:03:16;19.40;46.40
41628;DHT22;27321;50.816;6.054;2023-04-23T13:06:19;19.30;46.00
41628;DHT22;27321;50.816;6.054;2023-04-23T13:09:20;19.20;46.20
41628;DHT22;27321;50.816;6.054;2023-04-23T13:12:23;19.10;47.20
41628;DHT22;27321;50.816;6.054;2023-04-23T13:15:24;19.00;48.10
41628;DHT22;27321;50.816;6.054;2023-04-23T13:18:25;19.00;47.80
41628;DHT22;27321;50.816;6.054;2023-04-23T13:21:26;19.00;48.30
41628;DHT22;27321;50.816;6.054;2023-04-23T13:24:27;19.00;47.80
41628;DHT22;27321;50.816;6.054;2023-04-23T13:27:30;19.00;47.60
41628;DHT22;27321;50.816;6.054;2023-04-23T13:30:31;18.90;47.80
41628;DHT22;27321;50.816;6.054;2023-04-23T13:33:33;18.80;48.00
41628;DHT22;27321;50.816;6.054;2023-04-23T13:36:34;18.60;48.90
41628;DHT22;27321;50.816;6.054;2023-04-23T13:39:40;18.60;49.70
41628;DHT22;27321;50.816;6.054;2023-04-23T13:42:41;18.40;49.20
41628;DHT22;27321;50.816;6.054;2023-04-23T13:45:43;18.30;50.70
41628;DHT22;27321;50.816;6.054;2023-04-23T13:48:44;18.10;53.10
41628;DHT22;27321;50.816;6.054;2023-04-23T13:51:45;17.80;55.30
41628;DHT22;27321;50.816;6.054;2023-04-23T13:54:45;17.60;57.00
41628;DHT22;27321;50.816;6.054;2023-04-23T13:57:48;17.50;58.00
41628;DHT22;27321;50.816;6.054;2023-04-23T14:00:50;17.50;58.70
41628;DHT22;27321;50.816;6.054;2023-04-23T14:03:51;17.50;59.20
41628;DHT22;27321;50.816;6.054;2023-04-23T14:06:52;17.40;60.40
41628;DHT22;27321;50.816;6.054;2023-04-23T14:09:53;17.40;61.50
41628;DHT22;27321;50.816;6.054;2023-04-23T14:12:54;17.30;62.10
41628;DHT22;27321;50.816;6.054;2023-04-23T14:15:55;17.30;62.80
41628;DHT22;27321;50.816;6.054;2023-04-23T14:18:57;17.40;63.30
41628;DHT22;27321;50.816;6.054;2023-04-23T14:21:58;17.40;63.70
41628;DHT22;27321;50.816;6.054;2023-04-23T14:25:14;17.30;63.70
41628;DHT22;27321;50.816;6.054;2023-04-23T14:28:53;17.30;64.20
41628;DHT22;27321;50.816;6.054;2023-04-23T14:32:01;17.30;65.00
41628;DHT22;27321;50.816;6.054;2023-04-23T14:35:02;17.20;64.80
41628;DHT22;27321;50.816;6.054;2023-04-23T14:38:03;17.20;64.80
41628;DHT22;27321;50.816;6.054;2023-04-23T14:41:04;17.10;65.70
41628;DHT22;27321;50.816;6.054;2023-04-23T14:44:05;17.10;66.30
41628;DHT22;27321;50.816;6.054;2023-04-23T14:47:07;17.00;66.80
41628;DHT22;27321;50.816;6.054;2023-04-23T14:50:09;17.00;67.10
41628;DHT22;27321;50.816;6.054;2023-04-23T14:53:10;17.10;67.40
41628;DHT22;27321;50.816;6.054;2023-04-23T14:56:11;17.00;67.30
41628;DHT22;27321;50.816;6.054;2023-04-23T14:59:12;17.00;67.40
41628;DHT22;27321;50.816;6.054;2023-04-23T15:02:13;17.00;67.80
41628;DHT22;27321;50.816;6.054;2023-04-23T15:05:15;16.90;67.50
41628;DHT22;27321;50.816;6.054;2023-04-23T15:08:16;16.90;67.70
41628;DHT22;27321;50.816;6.054;2023-04-23T15:11:17;17.00;68.00
41628;DHT22;27321;50.816;6.054;2023-04-23T15:14:31;17.10;68.20
41628;DHT22;27321;50.816;6.054;2023-04-23T15:17:36;17.30;68.10
41628;DHT22;27321;50.816;6.054;2023-04-23T15:20:37;17.30;67.00
41628;DHT22;27321;50.816;6.054;2023-04-23T15:23:38;17.40;67.20
41628;DHT22;27321;50.816;6.054;2023-04-23T15:26:42;17.40;67.40
41628;DHT22;27321;50.816;6.054;2023-04-23T15:29:43;17.60;67.60
41628;DHT22;27321;50.816;6.054;2023-04-23T15:32:44;17.60;67.40
41628;DHT22;27321;50.816;6.054;2023-04-23T15:35:45;17.70;67.20
41628;DHT22;27321;50.816;6.054;2023-04-23T15:38:47;17.80;66.90
41628;DHT22;27321;50.816;6.054;2023-04-23T15:41:50;17.80;66.50
41628;DHT22;27321;50.816;6.054;2023-04-23T15:44:51;17.80;66.70
41628;DHT22;27321;50.816;6.054;2023-04-23T15:47:55;17.70;66.60
41628;DHT22;27321;50.816;6.054;2023-04-23T15:50:56;17.60;66.30
41628;DHT22;27321;50.816;6.054;2023-04-23T15:53:57;17.50;66.00
41628;DHT22;27321;50.816;6.054;2023-04-23T15:57:00;17.40;62.20
41628;DHT22;27321;50.816;6.054;2023-04-23T16:00:03;17.20;63.40
41628;DHT22;27321;50.816;6.054;2023-04-23T16:03:12;17.10;62.00
41628;DHT22;27321;50.816;6.054;2023-04-23T16:06:14;16.90;62.30
41628;DHT22;27321;50.816;6.054;2023-04-23T16:09:15;16.80;62.30
41628;DHT22;27321;50.816;6.054;2023-04-23T16:12:16;16.60;62.60
41628;DHT22;27321;50.816;6.054;2023-04-23T16:15:17;16.60;63.70
41628;DHT22;27321;50.816;6.054;2023-04-23T16:18:18;16.50;62.90
41628;DHT22;27321;50.816;6.054;2023-04-23T16:21:19;16.40;63.60
41628;DHT22;27321;50.816;6.054;2023-04-23T16:24:20;16.40;63.80
41628;DHT22;27321;50.816;6.054;2023-04-23T16:27:22;16.50;64.10
41628;DHT22;27321;50.816;6.054;2023-04-23T16:30:23;16.40;63.90
41628;DHT22;27321;50.816;6.054;2023-04-23T16:33:25;16.40;64.10
41628;DHT22;27321;50.816;6.054;2023-04-23T16:36:26;16.40;64.10
41628;DHT22;27321;50.816;6.054;2023-04-23T16:39:27;16.40;63.50
41628;DHT22;27321;50.816;6.054;2023-04-23T16:42:28;16.30;63.50
41628;DHT22;27321;50.816;6.054;2023-04-23T16:45:29;16.20;63.40
41628;DHT22;27321;50.816;6.054;2023-04-23T16:48:30;16.10;63.80
41628;DHT22;27321;50.816;6.054;2023-04-23T16:51:31;16.10;63.80
41628;DHT22;27321;50.816;6.054;2023-04-23T16:54:32;16.10;63.80
41628;DHT22;27321;50.816;6.054;2023-04-23T16:57:35;16.20;63.80
41628;DHT22;27321;50.816;6.054;2023-04-23T17:00:36;16.20;64.00
41628;DHT22;27321;50.816;6.054;2023-04-23T17:03:37;16.20;63.50
41628;DHT22;27321;50.816;6.054;2023-04-23T17:06:38;16.10;63.10
41628;DHT22;27321;50.816;6.054;2023-04-23T17:09:39;16.00;63.70
41628;DHT22;27321;50.816;6.054;2023-04-23T17:12:40;16.00;64.00
41628;DHT22;27321;50.816;6.054;2023-04-23T17:15:41;16.00;64.10
41628;DHT22;27321;50.816;6.054;2023-04-23T17:18:42;16.00;63.90
41628;DHT22;27321;50.816;6.054;2023-04-23T17:21:44;16.10;64.00
41628;DHT22;27321;50.816;6.054;2023-04-23T17:24:45;16.10;63.70
41628;DHT22;27321;50.816;6.054;2023-04-23T17:27:46;16.10;63.70
41628;DHT22;27321;50.816;6.054;2023-04-23T17:30:47;16.10;63.80
41628;DHT22;27321;50.816;6.054;2023-04-23T17:33:50;16.10;63.70
41628;DHT22;27321;50.816;6.054;2023-04-23T17:36:53;16.10;63.60
41628;DHT22;27321;50.816;6.054;2023-04-23T17:39:54;16.10;63.50
41628;DHT22;27321;50.816;6.054;2023-04-23T17:42:55;16.10;63.50
41628;DHT22;27321;50.816;6.054;2023-04-23T17:45:56;16.00;64.00
41628;DHT22;27321;50.816;6.054;2023-04-23T17:48:57;16.00;64.10
41628;DHT22;27321;50.816;6.054;2023-04-23T17:51:58;15.90;64.10
41628;DHT22;27321;50.816;6.054;2023-04-23T17:54:59;15.90;64.50
41628;DHT22;27321;50.816;6.054;2023-04-23T17:58:00;15.80;64.10
41628;DHT22;27321;50.816;6.054;2023-04-23T18:01:09;15.70;64.60
41628;DHT22;27321;50.816;6.054;2023-04-23T18:04:10;15.60;65.10
41628;DHT22;27321;50.816;6.054;2023-04-23T18:07:11;15.50;65.60
41628;DHT22;27321;50.816;6.054;2023-04-23T18:10:12;15.50;65.70
41628;DHT22;27321;50.816;6.054;2023-04-23T18:13:13;15.40;66.00
41628;DHT22;27321;50.816;6.054;2023-04-23T18:16:14;15.40;65.90
41628;DHT22;27321;50.816;6.054;2023-04-23T18:19:15;15.30;64.20
41628;DHT22;27321;50.816;6.054;2023-04-23T18:22:16;15.20;64.10
41628;DHT22;27321;50.816;6.054;2023-04-23T18:25:18;15.10;63.50
41628;DHT22;27321;50.816;6.054;2023-04-23T18:28:19;15.10;64.10
41628;DHT22;27321;50.816;6.054;2023-04-23T18:31:21;15.00;63.70
41628;DHT22;27321;50.816;6.054;2023-04-23T18:34:23;15.00;64.30
41628;DHT22;27321;50.816;6.054;2023-04-23T18:40:48;14.80;64.40
41628;DHT22;27321;50.816;6.054;2023-04-23T18:43:49;14.80;63.00
41628;DHT22;27321;50.816;6.054;2023-04-23T18:46:51;14.60;62.70
41628;DHT22;27321;50.816;6.054;2023-04-23T18:49:54;14.50;62.40
41628;DHT22;27321;50.816;6.054;2023-04-23T18:52:57;14.50;61.60
41628;DHT22;27321;50.816;6.054;2023-04-23T18:55:58;14.30;60.60
41628;DHT22;27321;50.816;6.054;2023-04-23T18:58:59;14.30;60.30
41628;DHT22;27321;50.816;6.054;2023-04-23T19:02:00;14.20;61.30
41628;DHT22;27321;50.816;6.054;2023-04-23T19:05:02;14.10;61.30
41628;DHT22;27321;50.816;6.054;2023-04-23T19:08:04;14.10;61.80
41628;DHT22;27321;50.816;6.054;2023-04-23T19:11:05;14.20;62.10
41628;DHT22;27321;50.816;6.054;2023-04-23T19:14:06;14.10;62.40
41628;DHT22;27321;50.816;6.054;2023-04-23T19:17:06;14.10;62.60
41628;DHT22;27321;50.816;6.054;2023-04-23T19:20:08;14.00;62.70